createdAt,value
2018-10-09T00:00:55.143Z,11.90
2018-10-09T00:03:59.245Z,12.00
2018-10-09T00:07:03.386Z,11.90
2018-10-09T00:10:07.551Z,11.90
2018-10-09T00:13:11.722Z,11.90
2018-10-09T00:16:15.880Z,11.80
2018-10-09T00:19:20.096Z,11.80
2018-10-09T00:22:24.237Z,11.70
2018-10-09T00:25:28.374Z,11.70
2018-10-09T00:28:32.545Z,11.70
2018-10-09T00:31:36.763Z,11.70
2018-10-09T00:34:40.902Z,11.70
2018-10-09T00:37:45.306Z,11.60
2018-10-09T00:40:49.450Z,11.60
2018-10-09T00:43:53.637Z,11.50
2018-10-09T00:46:57.767Z,11.40
2018-10-09T00:50:01.923Z,11.30
2018-10-09T00:53:06.191Z,11.30
2018-10-09T00:56:10.615Z,11.30
2018-10-09T00:59:14.747Z,11.30
2018-10-09T01:02:18.927Z,11.30
2018-10-09T01:05:23.169Z,11.30
2018-10-09T01:08:27.326Z,11.30
2018-10-09T01:11:31.462Z,11.30
2018-10-09T01:14:35.619Z,11.20
2018-10-09T01:17:39.814Z,11.20
2018-10-09T01:20:43.944Z,11.20
2018-10-09T01:23:48.169Z,11.30
2018-10-09T01:26:52.350Z,11.30
2018-10-09T01:29:56.481Z,11.40
2018-10-09T01:33:01.239Z,11.40
2018-10-09T01:36:05.350Z,11.40
2018-10-09T01:39:10.363Z,11.40
2018-10-09T01:42:14.517Z,11.30
2018-10-09T01:45:18.653Z,11.30
2018-10-09T01:48:22.798Z,11.30
2018-10-09T01:51:26.926Z,11.30
2018-10-09T01:54:31.058Z,11.30
2018-10-09T01:57:35.239Z,11.20
2018-10-09T02:00:39.362Z,11.30
2018-10-09T02:03:43.499Z,11.20
2018-10-09T02:06:47.737Z,11.20
2018-10-09T02:09:51.862Z,11.20
2018-10-09T02:12:55.994Z,11.10
2018-10-09T02:16:00.201Z,11.10
2018-10-09T02:19:04.326Z,11.20
2018-10-09T02:22:08.466Z,11.10
2018-10-09T02:25:12.602Z,11.10
2018-10-09T02:28:16.932Z,11.10
2018-10-09T02:31:21.067Z,11.10
2018-10-09T02:34:25.234Z,11.10
2018-10-09T02:37:29.342Z,11.10
2018-10-09T02:40:33.480Z,11.00
2018-10-09T02:43:37.614Z,10.90
2018-10-09T02:46:41.806Z,10.90
2018-10-09T02:49:45.936Z,10.80
2018-10-09T02:52:50.272Z,10.90
2018-10-09T02:55:54.389Z,10.90
2018-10-09T02:58:58.519Z,10.90
2018-10-09T03:02:02.661Z,10.90
2018-10-09T03:05:07.127Z,10.90
2018-10-09T03:08:11.395Z,10.90
2018-10-09T03:11:16.380Z,10.90
2018-10-09T03:14:20.502Z,10.90
2018-10-09T03:17:24.627Z,10.80
2018-10-09T03:20:28.803Z,10.90
2018-10-09T03:23:32.903Z,10.80
2018-10-09T03:26:37.034Z,10.80
2018-10-09T03:29:41.164Z,10.70
2018-10-09T03:32:45.299Z,10.70
2018-10-09T03:35:49.428Z,10.70
2018-10-09T03:38:53.566Z,10.60
2018-10-09T03:41:57.810Z,10.60
2018-10-09T03:45:01.972Z,10.60
2018-10-09T03:48:06.150Z,10.60
2018-10-09T03:51:10.299Z,10.70
2018-10-09T03:54:14.427Z,10.70
2018-10-09T03:57:18.550Z,10.70
2018-10-09T04:00:22.692Z,10.50
2018-10-09T04:03:26.830Z,10.40
2018-10-09T04:06:30.966Z,10.40
2018-10-09T04:09:35.173Z,10.40
2018-10-09T04:12:39.304Z,10.50
2018-10-09T04:15:43.418Z,10.50
2018-10-09T04:18:47.542Z,10.50
2018-10-09T04:21:51.670Z,10.60
2018-10-09T04:24:55.846Z,10.40
2018-10-09T04:27:59.971Z,10.40
2018-10-09T04:31:04.126Z,10.40
2018-10-09T04:34:08.708Z,10.40
2018-10-09T04:37:12.925Z,10.40
2018-10-09T04:40:17.052Z,10.50
2018-10-09T04:43:21.194Z,10.50
2018-10-09T04:46:25.328Z,10.60
2018-10-09T04:49:29.495Z,10.60
2018-10-09T04:52:33.623Z,10.80
2018-10-09T04:55:37.766Z,10.90
2018-10-09T04:58:42.007Z,11.00
2018-10-09T05:01:46.146Z,11.10
2018-10-09T05:04:50.280Z,11.10
2018-10-09T05:07:54.398Z,11.10
2018-10-09T05:10:58.531Z,11.10
2018-10-09T05:14:02.666Z,11.10
2018-10-09T05:17:07.178Z,11.20
2018-10-09T05:20:11.744Z,11.20
2018-10-09T05:23:15.892Z,11.20
2018-10-09T05:26:20.016Z,11.20
2018-10-09T05:29:24.147Z,11.20
2018-10-09T05:32:28.282Z,11.20
2018-10-09T05:35:32.493Z,11.30
2018-10-09T05:38:36.622Z,11.40
2018-10-09T05:41:40.886Z,11.40
2018-10-09T05:44:45.078Z,11.50
2018-10-09T05:47:49.365Z,11.50
2018-10-09T05:50:53.517Z,11.60
2018-10-09T05:53:57.639Z,11.50
2018-10-09T05:57:01.771Z,11.70
2018-10-09T06:00:06.479Z,11.70
2018-10-09T06:03:10.615Z,11.70
2018-10-09T06:06:14.766Z,11.80
2018-10-09T06:09:18.901Z,11.90
2018-10-09T06:12:23.031Z,11.90
2018-10-09T06:15:27.200Z,12.00
2018-10-09T06:18:31.298Z,12.00
2018-10-09T06:21:35.454Z,12.00
2018-10-09T06:24:39.579Z,12.10
2018-10-09T06:27:43.711Z,12.30
2018-10-09T06:30:48.723Z,12.40
2018-10-09T06:33:52.884Z,12.50
2018-10-09T06:36:57.050Z,12.50
2018-10-09T06:40:01.190Z,12.50
2018-10-09T06:43:05.367Z,12.40
2018-10-09T06:46:09.506Z,12.50
2018-10-09T06:49:13.683Z,12.50
2018-10-09T06:52:17.830Z,12.60
2018-10-09T06:55:21.969Z,12.70
2018-10-09T06:58:26.343Z,12.80
2018-10-09T07:01:30.492Z,12.90
2018-10-09T07:04:34.622Z,13.10
2018-10-09T07:07:38.758Z,13.20
2018-10-09T07:10:43.057Z,13.20
2018-10-09T07:13:47.203Z,13.30
2018-10-09T07:16:51.351Z,13.40
2018-10-09T07:19:55.479Z,13.50
2018-10-09T07:22:59.646Z,13.60
2018-10-09T07:26:03.777Z,13.70
2018-10-09T07:29:07.927Z,13.70
2018-10-09T07:32:12.059Z,13.80
2018-10-09T07:35:16.199Z,13.90
2018-10-09T07:38:20.339Z,13.90
2018-10-09T07:41:24.470Z,13.90
2018-10-09T07:44:28.619Z,13.80
2018-10-09T07:47:32.751Z,13.80
2018-10-09T07:50:36.891Z,13.80
2018-10-09T07:53:41.082Z,13.80
2018-10-09T07:56:45.203Z,13.70
2018-10-09T07:59:49.346Z,13.80
2018-10-09T08:02:53.534Z,13.80
2018-10-09T08:05:57.686Z,13.90
2018-10-09T08:09:01.822Z,14.00
2018-10-09T08:12:05.970Z,14.10
2018-10-09T08:15:10.104Z,14.20
2018-10-09T08:18:14.249Z,14.40
2018-10-09T08:21:18.374Z,14.60
2018-10-09T08:24:22.528Z,14.80
2018-10-09T08:27:26.690Z,15.00
2018-10-09T08:30:30.837Z,15.00
2018-10-09T08:33:34.967Z,15.10
2018-10-09T08:36:39.091Z,15.20
2018-10-09T08:39:43.224Z,15.20
2018-10-09T08:42:47.364Z,15.30
2018-10-09T08:45:51.500Z,15.50
2018-10-09T08:48:55.644Z,15.60
2018-10-09T08:51:59.834Z,15.70
2018-10-09T08:55:03.915Z,15.80
2018-10-09T08:58:08.051Z,15.90
2018-10-09T09:01:12.183Z,16.00
2018-10-09T09:04:16.322Z,16.20
2018-10-09T09:07:20.503Z,16.50
2018-10-09T09:10:24.639Z,16.80
2018-10-09T09:13:28.774Z,17.10
2018-10-09T09:16:33.000Z,17.40
2018-10-09T09:19:37.143Z,17.70
2018-10-09T09:22:41.292Z,18.00
2018-10-09T09:25:45.431Z,18.40
2018-10-09T09:28:49.571Z,18.50
2018-10-09T09:31:53.700Z,18.60
2018-10-09T09:34:57.827Z,18.70
2018-10-09T09:38:01.974Z,18.80
2018-10-09T09:41:06.337Z,19.20
2018-10-09T09:44:10.469Z,19.40
2018-10-09T09:47:14.618Z,19.60
2018-10-09T09:50:18.818Z,19.80
2018-10-09T09:53:22.949Z,20.00
2018-10-09T09:56:27.090Z,20.30
2018-10-09T09:59:31.407Z,20.50
2018-10-09T10:02:35.582Z,20.70
2018-10-09T10:05:39.706Z,20.90
2018-10-09T10:08:43.849Z,21.10
2018-10-09T10:11:47.999Z,21.20
2018-10-09T10:14:52.139Z,21.40
2018-10-09T10:17:56.271Z,21.70
2018-10-09T10:21:00.408Z,21.80
2018-10-09T10:24:04.618Z,22.00
2018-10-09T10:27:08.756Z,22.30
2018-10-09T10:30:12.900Z,22.30
2018-10-09T10:33:17.051Z,22.30
2018-10-09T10:36:21.175Z,22.40
2018-10-09T10:39:25.322Z,22.60
2018-10-09T10:42:29.466Z,22.70
2018-10-09T10:45:33.602Z,22.70
2018-10-09T10:48:42.440Z,22.40
2018-10-09T10:51:46.580Z,22.20
2018-10-09T10:54:50.733Z,22.30
2018-10-09T10:57:54.861Z,22.40
2018-10-09T11:00:58.998Z,22.70
2018-10-09T11:04:03.129Z,22.90
2018-10-09T11:07:07.276Z,23.00
2018-10-09T11:10:11.418Z,23.20
2018-10-09T11:13:15.560Z,23.00
2018-10-09T11:16:19.986Z,22.60
2018-10-09T11:19:24.139Z,22.60
2018-10-09T11:22:28.368Z,22.70
2018-10-09T11:25:32.495Z,22.80
2018-10-09T11:28:36.634Z,23.00
2018-10-09T11:31:40.775Z,23.10
2018-10-09T11:34:44.922Z,23.00
2018-10-09T11:37:49.071Z,23.10
2018-10-09T11:40:53.198Z,23.10
2018-10-09T11:43:57.338Z,22.70
2018-10-09T11:47:01.471Z,22.70
2018-10-09T11:50:06.499Z,22.70
2018-10-09T11:53:10.651Z,22.90
2018-10-09T11:56:14.794Z,23.20
2018-10-09T11:59:18.927Z,23.40
2018-10-09T12:02:23.055Z,23.70
2018-10-09T12:05:27.186Z,23.80
2018-10-09T12:08:31.343Z,24.00
2018-10-09T12:11:35.486Z,24.00
2018-10-09T12:14:39.631Z,23.90
2018-10-09T12:17:43.814Z,23.60
2018-10-09T12:20:47.968Z,23.30
2018-10-09T12:23:52.115Z,23.10
2018-10-09T12:26:56.298Z,23.20
2018-10-09T12:30:00.399Z,23.20
2018-10-09T12:33:04.614Z,23.30
2018-10-09T12:36:08.662Z,23.40
2018-10-09T12:39:13.894Z,23.30
2018-10-09T12:42:17.999Z,23.30
2018-10-09T12:45:22.149Z,23.30
2018-10-09T12:48:26.258Z,23.50
2018-10-09T12:51:30.360Z,23.60
2018-10-09T12:54:34.466Z,23.70
2018-10-09T12:57:38.589Z,23.90
2018-10-09T13:00:42.707Z,24.00
2018-10-09T13:03:46.905Z,24.10
2018-10-09T13:06:51.008Z,24.20
2018-10-09T13:09:55.125Z,24.10
2018-10-09T13:12:59.239Z,23.80
2018-10-09T13:16:03.352Z,23.90
2018-10-09T13:19:07.482Z,24.10
2018-10-09T13:22:11.876Z,24.50
2018-10-09T13:25:15.697Z,25.20
2018-10-09T13:28:19.815Z,25.50
2018-10-09T13:31:23.935Z,25.50
2018-10-09T13:34:28.093Z,25.40
2018-10-09T13:37:32.174Z,25.40
2018-10-09T13:40:36.279Z,25.40
2018-10-09T13:43:40.388Z,25.20
2018-10-09T13:46:44.511Z,25.10
2018-10-09T13:49:48.622Z,25.30
2018-10-09T13:52:52.730Z,25.60
2018-10-09T13:55:56.842Z,25.60
2018-10-09T13:59:00.978Z,25.40
2018-10-09T14:02:05.115Z,25.10
2018-10-09T14:05:09.207Z,25.10
2018-10-09T14:08:13.347Z,25.30
2018-10-09T14:11:17.647Z,25.50
2018-10-09T14:14:21.738Z,25.50
2018-10-09T14:17:25.839Z,25.60
2018-10-09T14:20:29.952Z,25.50
2018-10-09T14:23:34.067Z,25.10
2018-10-09T14:26:38.479Z,24.90
2018-10-09T14:29:42.570Z,24.80
2018-10-09T14:32:46.779Z,24.60
2018-10-09T14:35:50.874Z,24.40
2018-10-09T14:38:54.980Z,24.20
2018-10-09T14:41:59.082Z,23.90
2018-10-09T14:45:03.203Z,23.50
2018-10-09T14:48:07.328Z,23.30
2018-10-09T14:51:11.475Z,23.10
2018-10-09T14:54:15.582Z,22.90
2018-10-09T14:57:19.707Z,22.60
2018-10-09T15:00:23.827Z,22.40
2018-10-09T15:03:28.012Z,22.30
2018-10-09T15:06:32.066Z,22.30
2018-10-09T15:09:36.233Z,22.20
2018-10-09T15:12:40.331Z,22.10
2018-10-09T15:15:44.463Z,22.10
2018-10-09T15:18:48.578Z,22.00
2018-10-09T15:21:52.683Z,21.90
2018-10-09T15:24:56.837Z,21.80
2018-10-09T15:28:00.951Z,21.80
2018-10-09T15:31:05.123Z,21.70
2018-10-09T15:34:09.255Z,21.60
2018-10-09T15:37:13.384Z,21.50
2018-10-09T15:40:17.495Z,21.40
2018-10-09T15:43:21.610Z,21.20
2018-10-09T15:46:25.726Z,21.10
2018-10-09T15:49:29.839Z,21.10
2018-10-09T15:52:34.027Z,21.00
2018-10-09T15:55:38.099Z,21.00
2018-10-09T15:58:42.225Z,21.00
2018-10-09T16:01:46.334Z,21.00
2018-10-09T16:04:50.440Z,21.00
2018-10-09T16:07:54.566Z,20.90
2018-10-09T16:10:58.710Z,20.90
2018-10-09T16:14:02.823Z,20.80
2018-10-09T16:17:07.051Z,20.70
2018-10-09T16:20:11.151Z,20.60
2018-10-09T16:23:15.258Z,20.50
2018-10-09T16:26:19.384Z,20.30
2018-10-09T16:29:23.504Z,20.20
2018-10-09T16:32:27.644Z,20.10
2018-10-09T16:35:31.782Z,20.00
2018-10-09T16:38:35.890Z,19.90
2018-10-09T16:41:40.203Z,19.70
2018-10-09T16:44:44.335Z,19.60
2018-10-09T16:47:48.442Z,19.50
2018-10-09T16:50:52.602Z,19.30
2018-10-09T16:53:56.750Z,19.30
2018-10-09T16:57:00.885Z,19.20
2018-10-09T17:00:05.023Z,19.00
2018-10-09T17:03:09.139Z,18.90
2018-10-09T17:06:13.267Z,18.90
2018-10-09T17:09:17.367Z,18.70
2018-10-09T17:12:21.531Z,18.70
2018-10-09T17:15:25.716Z,18.60
2018-10-09T17:18:29.794Z,18.50
2018-10-09T17:21:33.897Z,18.40
2018-10-09T17:24:38.004Z,18.30
2018-10-09T17:27:42.119Z,18.20
2018-10-09T17:30:46.226Z,18.10
2018-10-09T17:33:50.391Z,18.00
2018-10-09T17:36:54.494Z,17.80
2018-10-09T17:39:58.621Z,17.70
2018-10-09T17:43:02.751Z,17.60
2018-10-09T17:46:06.956Z,17.40
2018-10-09T17:49:11.059Z,17.30
2018-10-09T17:52:15.154Z,17.30
2018-10-09T17:55:19.293Z,17.20
2018-10-09T17:58:23.447Z,17.10
2018-10-09T18:01:27.599Z,17.00
2018-10-09T18:04:31.739Z,17.00
2018-10-09T18:07:35.839Z,17.10
2018-10-09T18:10:39.963Z,17.10
2018-10-09T18:13:44.070Z,17.10
2018-10-09T18:16:48.189Z,17.00
2018-10-09T18:19:52.303Z,16.90
2018-10-09T18:22:56.399Z,16.90
2018-10-09T18:26:01.096Z,16.80
2018-10-09T18:29:05.198Z,16.50
2018-10-09T18:32:09.415Z,16.30
2018-10-09T18:35:13.542Z,16.10
2018-10-09T18:38:17.637Z,16.00
2018-10-09T18:41:21.896Z,15.90
2018-10-09T18:44:25.866Z,15.80
2018-10-09T18:47:35.375Z,15.80
2018-10-09T18:50:39.492Z,15.80
2018-10-09T18:53:44.496Z,15.70
2018-10-09T18:56:48.607Z,15.70
2018-10-09T18:59:52.724Z,15.60
2018-10-09T19:02:56.827Z,15.60
2018-10-09T19:06:01.058Z,15.60
2018-10-09T19:09:09.482Z,15.50
2018-10-09T19:12:13.574Z,15.50
2018-10-09T19:15:17.683Z,15.40
2018-10-09T19:18:22.289Z,15.40
2018-10-09T19:21:26.398Z,15.40
2018-10-09T19:24:30.515Z,15.30
2018-10-09T19:27:34.625Z,15.30
2018-10-09T19:30:38.739Z,15.20
2018-10-09T19:33:42.883Z,15.20
2018-10-09T19:36:46.991Z,15.10
2018-10-09T19:39:51.111Z,15.10
2018-10-09T19:42:55.226Z,15.10
2018-10-09T19:45:59.346Z,15.10
2018-10-09T19:49:03.450Z,15.00
2018-10-09T19:52:07.675Z,15.00
2018-10-09T19:55:11.812Z,14.90
2018-10-09T19:58:15.933Z,14.90
2018-10-09T20:01:20.223Z,14.90
2018-10-09T20:04:24.191Z,14.90
2018-10-09T20:07:28.318Z,14.80
2018-10-09T20:10:32.534Z,14.80
2018-10-09T20:13:36.750Z,14.70
2018-10-09T20:16:41.009Z,14.70
2018-10-09T20:19:45.230Z,14.70
2018-10-09T20:22:49.459Z,14.70
2018-10-09T20:25:53.656Z,14.70
2018-10-09T20:28:57.938Z,14.60
2018-10-09T20:32:02.064Z,14.50
2018-10-09T20:35:06.601Z,14.50
2018-10-09T20:38:10.836Z,14.50
2018-10-09T20:41:14.951Z,14.50
2018-10-09T20:44:19.088Z,14.40
2018-10-09T20:47:28.474Z,14.30
2018-10-09T20:50:32.593Z,14.30
2018-10-09T20:53:36.726Z,14.20
2018-10-09T20:56:40.883Z,14.30
2018-10-09T20:59:44.991Z,14.30
2018-10-09T21:02:49.134Z,14.40
2018-10-09T21:05:53.427Z,14.40
2018-10-09T21:08:57.375Z,14.40
2018-10-09T21:12:01.490Z,14.40
2018-10-09T21:15:05.617Z,14.40
2018-10-09T21:18:09.737Z,14.40
2018-10-09T21:21:13.866Z,14.40
2018-10-09T21:24:17.986Z,14.40
2018-10-09T21:27:22.112Z,14.40
2018-10-09T21:30:26.218Z,14.40
2018-10-09T21:33:30.330Z,14.30
2018-10-09T21:36:34.484Z,14.30
2018-10-09T21:39:38.547Z,14.30
2018-10-09T21:42:42.674Z,14.20
2018-10-09T21:45:46.878Z,14.10
2018-10-09T21:48:50.993Z,13.90
2018-10-09T21:51:55.126Z,13.70
2018-10-09T21:54:59.228Z,13.50
2018-10-09T21:58:03.366Z,13.40
2018-10-09T22:01:10.326Z,13.30
2018-10-09T22:04:14.447Z,13.30
2018-10-09T22:07:19.085Z,13.10
2018-10-09T22:10:23.237Z,13.10
2018-10-09T22:13:27.348Z,13.00
2018-10-09T22:16:31.459Z,12.90
2018-10-09T22:19:35.591Z,12.90
2018-10-09T22:22:39.897Z,12.90
2018-10-09T22:25:44.030Z,12.90
2018-10-09T22:28:48.158Z,12.80
2018-10-09T22:31:52.259Z,12.80
2018-10-09T22:34:56.406Z,12.70
2018-10-09T22:38:00.528Z,12.70
2018-10-09T22:41:04.649Z,12.60
2018-10-09T22:44:08.857Z,12.60
2018-10-09T22:47:12.908Z,12.50
2018-10-09T22:50:17.015Z,12.50
2018-10-09T22:53:21.126Z,12.50
2018-10-09T22:56:25.246Z,12.40
2018-10-09T22:59:29.344Z,12.30
2018-10-09T23:02:33.453Z,12.20
2018-10-09T23:05:37.582Z,12.20
2018-10-09T23:08:41.690Z,12.10
2018-10-09T23:25:56.746Z,11.90
2018-10-09T23:29:00.850Z,11.80
2018-10-09T23:32:04.958Z,11.90
2018-10-09T23:35:09.074Z,11.90
2018-10-09T23:38:13.190Z,11.90
2018-10-09T23:41:17.306Z,11.90
2018-10-09T23:44:21.423Z,11.90
2018-10-09T23:47:25.540Z,11.90
2018-10-09T23:50:29.630Z,11.80
2018-10-09T23:53:33.747Z,11.80
2018-10-09T23:56:37.862Z,11.80
2018-10-09T23:59:41.970Z,11.80
